Time,TemperatureF,DewpointF,PressureIn,WindDirection,WindDirectionDegrees,WindSpeedMPH,WindSpeedGustMPH,Humidity,HourlyPrecipIn,Conditions,Clouds,dailyrainin,SoftwareType,DateUTC
2013-05-07 00:00:00,57.8,51.7,29.99,NE,43,1.0,4.0,80,0.00,,---,0.00,VWS V14.01,2013-05-07 05:00:00,
2013-05-07 00:01:00,57.7,51.6,29.99,NE,43,0.0,2.0,80,0.00,,---,0.00,VWS V14.01,2013-05-07 05:01:00,
2013-05-07 00:06:00,57.3,51.2,29.99,NE,43,0.0,3.0,80,0.00,,---,0.00,VWS V14.01,2013-05-07 05:06:00,
2013-05-07 00:11:00,56.9,50.8,29.98,NE,43,2.0,3.0,80,0.00,,---,0.00,VWS V14.01,2013-05-07 05:11:00,
2013-05-07 00:16:00,56.6,50.5,29.98,NE,43,0.0,3.0,80,0.00,,---,0.00,VWS V14.01,2013-05-07 05:16:00,
2013-05-07 00:21:00,56.3,50.2,29.98,NE,43,0.0,3.0,80,0.00,,---,0.00,VWS V14.01,2013-05-07 05:21:00,
2013-05-07 00:26:00,56.0,50.6,29.99,NE,43,0.0,3.0,82,0.00,,---,0.00,VWS V14.01,2013-05-07 05:26:00,
2013-05-07 00:30:00,55.9,50.8,29.99,NE,43,0.0,3.0,83,0.00,,---,0.00,VWS V14.01,2013-05-07 05:30:00,
2013-05-07 00:31:00,55.8,50.7,29.99,NE,43,0.0,0.0,83,0.00,,---,0.00,VWS V14.01,2013-05-07 05:31:00,
2013-05-07 00:36:00,55.6,50.8,29.99,NE,43,0.0,0.0,84,0.00,,---,0.00,VWS V14.01,2013-05-07 05:36:00,
2013-05-07 00:41:00,55.3,49.9,29.99,NE,43,0.0,0.0,82,0.00,,---,0.00,VWS V14.01,2013-05-07 05:41:00,
2013-05-07 00:46:00,55.1,50.0,29.99,NE,43,0.0,0.0,83,0.00,,---,0.00,VWS V14.01,2013-05-07 05:46:00,
2013-05-07 00:51:00,54.9,49.5,29.99,NE,43,0.0,0.0,82,0.00,,---,0.00,VWS V14.01,2013-05-07 05:51:00,
2013-05-07 00:56:00,54.7,48.7,29.99,NE,43,0.0,0.0,80,0.00,,---,0.00,VWS V14.01,2013-05-07 05:56:00,
2013-05-07 01:00:00,54.7,48.3,29.99,NE,43,0.0,0.0,79,0.00,,---,0.00,VWS V14.01,2013-05-07 06:00:00,
2013-05-07 01:01:00,54.8,49.1,29.99,NE,43,0.0,0.0,81,0.00,,---,0.00,VWS V14.01,2013-05-07 06:01:00,
2013-05-07 01:06:00,55.0,49.9,29.99,NE,43,0.0,1.0,83,0.00,,---,0.00,VWS V14.01,2013-05-07 06:06:00,
2013-05-07 01:11:00,55.1,50.7,29.99,NE,43,0.0,2.0,85,0.00,,---,0.00,VWS V14.01,2013-05-07 06:11:00,
2013-05-07 01:16:00,55.0,50.6,29.98,NE,43,0.0,2.0,85,0.00,,---,0.00,VWS V14.01,2013-05-07 06:16:00,
2013-05-07 01:21:00,54.9,50.2,29.98,NE,43,0.0,2.0,84,0.00,,---,0.00,VWS V14.01,2013-05-07 06:21:00,
2013-05-07 01:26:00,54.7,50.0,29.98,NE,43,0.0,2.0,84,0.00,,---,0.00,VWS V14.01,2013-05-07 06:26:00,
2013-05-07 01:30:00,54.6,49.9,29.98,NE,43,0.0,2.0,84,0.00,,---,0.00,VWS V14.01,2013-05-07 06:30:00,
2013-05-07 01:31:00,54.6,48.6,29.98,NE,43,0.0,0.0,80,0.00,,---,0.00,VWS V14.01,2013-05-07 06:31:00,
2013-05-07 01:36:00,54.8,50.1,29.98,NE,43,0.0,2.0,84,0.00,,---,0.00,VWS V14.01,2013-05-07 06:36:00,
2013-05-07 01:41:00,54.5,49.5,29.98,NE,43,0.0,2.0,83,0.00,,---,0.00,VWS V14.01,2013-05-07 06:41:00,
2013-05-07 01:46:00,54.3,49.3,29.98,NE,43,0.0,2.0,83,0.00,,---,0.00,VWS V14.01,2013-05-07 06:46:00,
2013-05-07 01:51:00,53.8,47.1,29.98,NE,43,0.0,2.0,78,0.00,,---,0.00,VWS V14.01,2013-05-07 06:51:00,
2013-05-07 01:55:00,53.6,47.3,29.98,NE,43,0.0,2.0,79,0.00,,---,0.00,VWS V14.01,2013-05-07 06:55:00,
2013-05-07 02:00:00,53.7,49.0,29.98,NE,43,0.0,0.0,84,0.00,,---,0.00,VWS V14.01,2013-05-07 07:00:00,
2013-05-07 02:05:00,53.8,49.1,29.98,NE,43,0.0,0.0,84,0.00,,---,0.00,VWS V14.01,2013-05-07 07:05:00,
2013-05-07 02:10:00,53.7,49.3,29.98,NE,43,0.0,0.0,85,0.00,,---,0.00,VWS V14.01,2013-05-07 07:10:00,
2013-05-07 02:15:00,53.3,48.0,29.98,NE,43,0.0,0.0,82,0.00,,---,0.00,VWS V14.01,2013-05-07 07:15:00,
2013-05-07 02:20:00,53.0,47.7,29.98,NE,43,0.0,1.0,82,0.00,,---,0.00,VWS V14.01,2013-05-07 07:20:00,
2013-05-07 02:25:00,52.9,47.9,29.98,NE,43,0.0,2.0,83,0.00,,---,0.00,VWS V14.01,2013-05-07 07:25:00,
2013-05-07 02:30:00,52.8,48.1,29.98,NE,43,0.0,0.0,84,0.00,,---,0.00,VWS V14.01,2013-05-07 07:30:00,
2013-05-07 02:35:00,52.6,47.9,29.98,NE,43,0.0,2.0,84,0.00,,---,0.00,VWS V14.01,2013-05-07 07:35:00,
2013-05-07 02:40:00,52.4,47.7,29.99,NE,43,0.0,2.0,84,0.00,,---,0.00,VWS V14.01,2013-05-07 07:40:00,
2013-05-07 02:45:00,52.1,47.7,29.99,NE,43,0.0,2.0,85,0.00,,---,0.00,VWS V14.01,2013-05-07 07:45:00,
2013-05-07 02:50:00,52.0,47.6,29.99,NE,43,0.0,2.0,85,0.00,,---,0.00,VWS V14.01,2013-05-07 07:50:00,
2013-05-07 02:55:00,51.8,47.8,29.99,NE,43,0.0,2.0,86,0.00,,---,0.00,VWS V14.01,2013-05-07 07:55:00,
2013-05-07 03:00:00,51.6,47.6,29.99,NE,43,0.0,0.0,86,0.00,,---,0.00,VWS V14.01,2013-05-07 08:00:00,
2013-05-07 03:05:00,51.4,47.4,29.99,NE,43,0.0,0.0,86,0.00,,---,0.00,VWS V14.01,2013-05-07 08:05:00,
2013-05-07 03:10:00,51.1,47.1,29.99,NE,43,0.0,0.0,86,0.00,,---,0.00,VWS V14.01,2013-05-07 08:10:00,
2013-05-07 03:15:00,50.9,47.2,29.99,NE,43,0.0,0.0,87,0.00,,---,0.00,VWS V14.01,2013-05-07 08:15:00,
2013-05-07 03:20:00,50.7,47.0,29.99,NE,43,0.0,1.0,87,0.00,,---,0.00,VWS V14.01,2013-05-07 08:20:00,
2013-05-07 03:25:00,50.6,46.9,29.99,NE,43,0.0,1.0,87,0.00,,---,0.00,VWS V14.01,2013-05-07 08:25:00,
2013-05-07 03:30:00,50.4,47.0,29.99,NE,43,0.0,0.0,88,0.00,,---,0.00,VWS V14.01,2013-05-07 08:30:00,
2013-05-07 03:35:00,50.3,46.9,29.99,NE,43,0.0,0.0,88,0.00,,---,0.00,VWS V14.01,2013-05-07 08:35:00,
2013-05-07 03:40:00,50.3,46.9,29.99,NE,43,0.0,0.0,88,0.00,,---,0.00,VWS V14.01,2013-05-07 08:40:00,
2013-05-07 03:45:00,50.1,46.7,29.99,NE,43,0.0,0.0,88,0.00,,---,0.00,VWS V14.01,2013-05-07 08:45:00,
2013-05-07 03:50:00,50.0,46.9,29.99,NE,43,0.0,0.0,89,0.00,,---,0.00,VWS V14.01,2013-05-07 08:50:00,
2013-05-07 03:55:00,50.0,46.9,29.99,NE,43,0.0,0.0,89,0.00,,---,0.00,VWS V14.01,2013-05-07 08:55:00,
2013-05-07 04:00:00,49.9,47.1,29.99,NE,43,0.0,0.0,90,0.00,,---,0.00,VWS V14.01,2013-05-07 09:00:00,
2013-05-07 04:05:00,49.8,46.7,29.99,NE,43,0.0,0.0,89,0.00,,---,0.00,VWS V14.01,2013-05-07 09:05:00,
2013-05-07 04:10:00,49.7,46.6,29.99,NE,43,0.0,0.0,89,0.00,,---,0.00,VWS V14.01,2013-05-07 09:10:00,
2013-05-07 04:15:00,49.4,46.0,29.99,NE,43,0.0,0.0,88,0.00,,---,0.00,VWS V14.01,2013-05-07 09:15:00,
2013-05-07 04:20:00,49.2,46.1,29.99,NE,43,0.0,0.0,89,0.00,,---,0.00,VWS V14.01,2013-05-07 09:20:00,
2013-05-07 04:25:00,49.1,46.0,29.99,NE,43,0.0,0.0,89,0.00,,---,0.00,VWS V14.01,2013-05-07 09:25:00,
2013-05-07 04:30:00,49.0,45.6,29.99,NE,43,0.0,0.0,88,0.00,,---,0.00,VWS V14.01,2013-05-07 09:30:00,
2013-05-07 04:35:00,49.1,46.0,29.99,NE,43,0.0,0.0,89,0.00,,---,0.00,VWS V14.01,2013-05-07 09:35:00,
2013-05-07 04:40:00,49.1,46.0,29.99,NE,43,0.0,0.0,89,0.00,,---,0.00,VWS V14.01,2013-05-07 09:40:00,
2013-05-07 04:45:00,49.0,45.9,29.99,NE,43,0.0,0.0,89,0.00,,---,0.00,VWS V14.01,2013-05-07 09:45:00,
2013-05-07 04:50:00,48.7,45.3,29.99,NE,43,0.0,0.0,88,0.00,,---,0.00,VWS V14.01,2013-05-07 09:50:00,
2013-05-07 04:55:00,48.4,44.7,29.99,NE,43,0.0,0.0,87,0.00,,---,0.00,VWS V14.01,2013-05-07 09:55:00,
2013-05-07 05:00:00,48.4,45.0,29.99,NE,43,0.0,0.0,88,0.00,,---,0.00,VWS V14.01,2013-05-07 10:00:00,
2013-05-07 05:05:00,48.3,45.2,29.99,NE,43,0.0,0.0,89,0.00,,---,0.00,VWS V14.01,2013-05-07 10:05:00,
2013-05-07 05:10:00,48.3,45.2,29.99,NE,43,0.0,0.0,89,0.00,,---,0.00,VWS V14.01,2013-05-07 10:10:00,
2013-05-07 05:15:00,48.0,44.9,29.99,NE,43,0.0,0.0,89,0.00,,---,0.00,VWS V14.01,2013-05-07 10:15:00,
2013-05-07 05:20:00,47.9,44.8,29.99,NE,43,0.0,0.0,89,0.00,,---,0.00,VWS V14.01,2013-05-07 10:20:00,
2013-05-07 05:25:00,47.9,45.1,29.99,NE,43,0.0,0.0,90,0.00,,---,0.00,VWS V14.01,2013-05-07 10:25:00,
2013-05-07 05:30:00,47.8,45.0,29.99,NE,43,0.0,0.0,90,0.00,,---,0.00,VWS V14.01,2013-05-07 10:30:00,
2013-05-07 05:35:00,47.7,44.9,30.00,NE,43,0.0,0.0,90,0.00,,---,0.00,VWS V14.01,2013-05-07 10:35:00,
2013-05-07 05:40:00,47.6,44.8,30.00,NE,43,0.0,0.0,90,0.00,,---,0.00,VWS V14.01,2013-05-07 10:40:00,
2013-05-07 05:45:00,47.5,45.0,30.00,NE,43,0.0,0.0,91,0.00,,---,0.00,VWS V14.01,2013-05-07 10:45:00,
2013-05-07 05:50:00,47.5,45.0,30.00,NE,43,0.0,0.0,91,0.00,,---,0.00,VWS V14.01,2013-05-07 10:50:00,
2013-05-07 05:55:00,47.4,44.9,30.00,NE,43,0.0,0.0,91,0.00,,---,0.00,VWS V14.01,2013-05-07 10:55:00,
2013-05-07 06:00:00,47.3,44.8,30.00,NE,43,0.0,0.0,91,0.00,,---,0.00,VWS V14.01,2013-05-07 11:00:00,
2013-05-07 06:05:00,47.1,44.6,30.00,NE,43,0.0,0.0,91,0.00,,---,0.00,VWS V14.01,2013-05-07 11:05:00,
2013-05-07 06:10:00,47.0,44.8,30.00,NE,43,0.0,0.0,92,0.00,,---,0.00,VWS V14.01,2013-05-07 11:10:00,
2013-05-07 06:15:00,47.0,44.8,30.00,NE,43,0.0,0.0,92,0.00,,---,0.00,VWS V14.01,2013-05-07 11:15:00,
2013-05-07 06:20:00,47.0,44.8,30.00,NE,43,0.0,0.0,92,0.00,,---,0.00,VWS V14.01,2013-05-07 11:20:00,
2013-05-07 06:25:00,47.0,44.8,30.01,NE,43,0.0,0.0,92,0.00,,---,0.00,VWS V14.01,2013-05-07 11:25:00,
2013-05-07 06:30:00,47.2,45.0,30.01,NE,43,0.0,0.0,92,0.00,,---,0.00,VWS V14.01,2013-05-07 11:30:00,
2013-05-07 06:35:00,47.4,45.5,30.01,NE,43,0.0,0.0,93,0.00,,---,0.00,VWS V14.01,2013-05-07 11:35:00,
2013-05-07 06:40:00,47.5,45.6,30.01,NE,43,0.0,0.0,93,0.00,,---,0.00,VWS V14.01,2013-05-07 11:40:00,
2013-05-07 06:45:00,47.6,45.7,30.01,NE,43,0.0,2.0,93,0.00,,---,0.00,VWS V14.01,2013-05-07 11:45:00,
2013-05-07 06:50:00,47.8,45.9,30.01,NE,43,0.0,2.0,93,0.00,,---,0.00,VWS V14.01,2013-05-07 11:50:00,
2013-05-07 06:55:00,48.0,46.1,30.02,NE,43,0.0,2.0,93,0.00,,---,0.00,VWS V14.01,2013-05-07 11:55:00,
2013-05-07 07:00:00,48.4,46.5,30.02,NE,43,0.0,2.0,93,0.00,,---,0.00,VWS V14.01,2013-05-07 12:00:00,
2013-05-07 07:05:00,48.9,47.0,30.02,NE,43,0.0,2.0,93,0.00,,---,0.00,VWS V14.01,2013-05-07 12:05:00,
2013-05-07 07:10:00,49.3,47.4,30.02,NE,43,0.0,2.0,93,0.00,,---,0.00,VWS V14.01,2013-05-07 12:10:00,
2013-05-07 07:15:00,49.8,47.9,30.02,NE,43,0.0,2.0,93,0.00,,---,0.00,VWS V14.01,2013-05-07 12:15:00,
2013-05-07 07:20:00,50.2,47.7,30.02,NE,43,0.0,2.0,91,0.00,,---,0.00,VWS V14.01,2013-05-07 12:20:00,
2013-05-07 07:25:00,51.0,47.9,30.02,NE,43,0.0,2.0,89,0.00,,---,0.00,VWS V14.01,2013-05-07 12:25:00,
2013-05-07 07:30:00,52.0,48.6,30.02,NE,43,0.0,1.0,88,0.00,,---,0.00,VWS V14.01,2013-05-07 12:30:00,
2013-05-07 07:35:00,53.3,48.9,30.02,NE,43,0.0,2.0,85,0.00,,---,0.00,VWS V14.01,2013-05-07 12:35:00,
2013-05-07 07:40:00,54.7,48.3,30.03,NE,43,0.0,2.0,79,0.00,,---,0.00,VWS V14.01,2013-05-07 12:40:00,
2013-05-07 07:45:00,55.8,49.0,30.03,NE,43,1.0,2.0,78,0.00,,---,0.00,VWS V14.01,2013-05-07 12:45:00,
2013-05-07 07:50:00,56.8,50.0,30.02,NE,43,0.0,5.0,78,0.00,,---,0.00,VWS V14.01,2013-05-07 12:50:00,
2013-05-07 07:55:00,57.8,49.9,30.03,NE,43,0.0,5.0,75,0.00,,---,0.00,VWS V14.01,2013-05-07 12:55:00,
2013-05-07 08:00:00,58.7,49.3,30.03,NE,43,0.0,1.0,71,0.00,,---,0.00,VWS V14.01,2013-05-07 13:00:00,
2013-05-07 08:05:00,59.3,47.5,30.02,NE,43,1.0,4.0,65,0.00,,---,0.00,VWS V14.01,2013-05-07 13:05:00,
2013-05-07 08:10:00,60.2,48.4,30.03,NE,43,2.0,5.0,65,0.00,,---,0.00,VWS V14.01,2013-05-07 13:10:00,
2013-05-07 08:15:00,60.9,49.1,30.03,NE,43,1.0,5.0,65,0.00,,---,0.00,VWS V14.01,2013-05-07 13:15:00,
2013-05-07 08:20:00,61.6,49.7,30.03,NNE,26,0.0,5.0,65,0.00,,---,0.00,VWS V14.01,2013-05-07 13:20:00,
2013-05-07 08:25:00,62.2,48.2,30.03,NNE,26,0.0,5.0,60,0.00,,---,0.00,VWS V14.01,2013-05-07 13:25:00,
2013-05-07 08:30:00,63.0,48.5,30.03,NNE,32,0.0,1.0,59,0.00,,---,0.00,VWS V14.01,2013-05-07 13:30:00,
2013-05-07 08:35:00,63.6,49.0,30.03,NNE,30,0.0,3.0,59,0.00,,---,0.00,VWS V14.01,2013-05-07 13:35:00,
2013-05-07 08:40:00,64.1,49.0,30.03,NNE,30,0.0,3.0,58,0.00,,---,0.00,VWS V14.01,2013-05-07 13:40:00,
2013-05-07 08:45:00,64.6,49.0,30.03,NNE,30,0.0,4.0,57,0.00,,---,0.00,VWS V14.01,2013-05-07 13:45:00,
2013-05-07 08:50:00,65.0,48.5,30.03,NNE,30,0.0,4.0,55,0.00,,---,0.00,VWS V14.01,2013-05-07 13:50:00,
2013-05-07 08:55:00,65.2,50.1,30.03,NE,43,0.0,4.0,58,0.00,,---,0.00,VWS V14.01,2013-05-07 13:55:00,
2013-05-07 09:00:00,65.3,48.7,30.03,NNE,13,0.0,5.0,55,0.00,,---,0.00,VWS V14.01,2013-05-07 14:00:00,
2013-05-07 09:05:00,65.9,46.8,30.03,NE,42,0.0,5.0,50,0.00,,---,0.00,VWS V14.01,2013-05-07 14:05:00,
2013-05-07 09:10:00,66.5,48.3,30.03,ENE,65,2.0,5.0,52,0.00,,---,0.00,VWS V14.01,2013-05-07 14:10:00,
2013-05-07 09:15:00,67.0,46.7,30.03,North,351,0.0,5.0,48,0.00,,---,0.00,VWS V14.01,2013-05-07 14:15:00,
2013-05-07 09:20:00,67.4,48.7,30.03,NE,50,1.0,5.0,51,0.00,,---,0.00,VWS V14.01,2013-05-07 14:20:00,
2013-05-07 09:25:00,67.9,47.0,30.03,North,10,4.0,6.0,47,0.00,,---,0.00,VWS V14.01,2013-05-07 14:25:00,
2013-05-07 09:30:00,68.3,48.4,30.03,ESE,115,0.0,2.0,49,0.00,,---,0.00,VWS V14.01,2013-05-07 14:30:00,
2013-05-07 09:35:00,68.8,48.3,30.03,ESE,105,2.0,4.0,48,0.00,,---,0.00,VWS V14.01,2013-05-07 14:35:00,
2013-05-07 09:40:00,69.4,47.2,30.03,East,80,5.0,6.0,45,0.00,,---,0.00,VWS V14.01,2013-05-07 14:40:00,
2013-05-07 09:45:00,69.6,46.1,30.03,SE,139,4.0,6.0,43,0.00,,---,0.00,VWS V14.01,2013-05-07 14:45:00,
2013-05-07 09:50:00,69.7,46.2,30.03,SE,130,0.0,6.0,43,0.00,,---,0.00,VWS V14.01,2013-05-07 14:50:00,
2013-05-07 09:55:00,70.0,49.4,30.03,SE,128,0.0,6.0,48,0.00,,---,0.00,VWS V14.01,2013-05-07 14:55:00,
2013-05-07 10:00:00,70.5,45.7,30.03,NE,34,5.0,6.0,41,0.00,,---,0.00,VWS V14.01,2013-05-07 15:00:00,
2013-05-07 10:05:00,70.8,47.8,30.03,ENE,60,0.0,6.0,44,0.00,,---,0.00,VWS V14.01,2013-05-07 15:05:00,
2013-05-07 10:10:00,70.9,46.0,30.03,NE,53,4.0,6.0,41,0.00,,---,0.00,VWS V14.01,2013-05-07 15:10:00,
2013-05-07 10:15:00,71.2,48.2,30.03,ESE,105,0.0,6.0,44,0.00,,---,0.00,VWS V14.01,2013-05-07 15:15:00,
2013-05-07 10:20:00,71.3,46.4,30.03,NE,51,3.0,6.0,41,0.00,,---,0.00,VWS V14.01,2013-05-07 15:20:00,
2013-05-07 10:25:00,71.3,43.0,30.03,NE,46,2.0,8.0,36,0.00,,---,0.00,VWS V14.01,2013-05-07 15:25:00,
2013-05-07 10:30:00,71.5,45.3,30.03,ENE,69,1.0,2.0,39,0.00,,---,0.00,VWS V14.01,2013-05-07 15:30:00,
2013-05-07 10:35:00,71.8,44.8,30.03,NE,35,0.0,4.0,38,0.00,,---,0.00,VWS V14.01,2013-05-07 15:35:00,
2013-05-07 10:40:00,72.0,43.6,30.03,NNE,27,0.0,6.0,36,0.00,,---,0.00,VWS V14.01,2013-05-07 15:40:00,
2013-05-07 10:45:00,72.1,43.0,30.03,North,9,5.0,9.0,35,0.00,,---,0.00,VWS V14.01,2013-05-07 15:45:00,
2013-05-07 10:50:00,72.2,41.5,30.03,NNW,347,6.0,9.0,33,0.00,,---,0.00,VWS V14.01,2013-05-07 15:50:00,
2013-05-07 10:55:00,72.5,42.6,30.03,East,93,2.0,9.0,34,0.00,,---,0.00,VWS V14.01,2013-05-07 15:55:00,
2013-05-07 11:00:00,72.8,42.8,30.03,NNE,22,4.0,8.0,34,0.00,,---,0.00,VWS V14.01,2013-05-07 16:00:00,
2013-05-07 11:05:00,72.9,45.1,30.03,North,11,8.0,8.0,37,0.00,,---,0.00,VWS V14.01,2013-05-07 16:05:00,
2013-05-07 11:10:00,73.0,44.5,30.03,NW,323,0.0,8.0,36,0.00,,---,0.00,VWS V14.01,2013-05-07 16:10:00,
2013-05-07 11:15:00,73.4,45.6,30.03,East,91,0.0,8.0,37,0.00,,---,0.00,VWS V14.01,2013-05-07 16:15:00,
2013-05-07 11:20:00,73.7,43.6,30.03,North,360,1.0,8.0,34,0.00,,---,0.00,VWS V14.01,2013-05-07 16:20:00,
2013-05-07 11:25:00,73.8,43.7,30.02,NNW,337,1.0,8.0,34,0.00,,---,0.00,VWS V14.01,2013-05-07 16:25:00,
2013-05-07 11:30:00,74.0,45.4,30.02,North,11,5.0,6.0,36,0.00,,---,0.00,VWS V14.01,2013-05-07 16:30:00,
2013-05-07 11:35:00,73.8,41.3,30.02,NNW,342,0.0,6.0,31,0.00,,---,0.00,VWS V14.01,2013-05-07 16:35:00,
2013-05-07 11:40:00,73.7,41.2,30.02,NW,326,2.0,8.0,31,0.00,,---,0.00,VWS V14.01,2013-05-07 16:40:00,
2013-05-07 11:45:00,73.6,42.0,30.02,NE,46,1.0,8.0,32,0.00,,---,0.00,VWS V14.01,2013-05-07 16:45:00,
2013-05-07 11:50:00,73.7,42.0,30.02,ENE,65,2.0,8.0,32,0.00,,---,0.00,VWS V14.01,2013-05-07 16:50:00,
2013-05-07 11:55:00,73.9,44.5,30.02,NNW,336,1.0,9.0,35,0.00,,---,0.00,VWS V14.01,2013-05-07 16:55:00,
2013-05-07 12:00:00,74.1,44.7,30.02,ENE,71,0.0,5.0,35,0.00,,---,0.00,VWS V14.01,2013-05-07 17:00:00,
2013-05-07 12:05:00,74.5,45.8,30.01,North,355,7.0,9.0,36,0.00,,---,0.00,VWS V14.01,2013-05-07 17:05:00,
2013-05-07 12:10:00,74.8,46.1,30.01,NNE,22,0.0,9.0,36,0.00,,---,0.00,VWS V14.01,2013-05-07 17:10:00,
2013-05-07 12:15:00,75.0,47.7,30.01,NNE,23,3.0,9.0,38,0.00,,---,0.00,VWS V14.01,2013-05-07 17:15:00,
2013-05-07 12:20:00,75.5,45.2,30.01,North,5,6.0,9.0,34,0.00,,---,0.00,VWS V14.01,2013-05-07 17:20:00,
2013-05-07 12:25:00,75.6,46.8,30.01,NNE,19,3.0,9.0,36,0.00,,---,0.00,VWS V14.01,2013-05-07 17:25:00,
2013-05-07 12:30:00,75.5,44.4,30.01,NE,48,0.0,2.0,33,0.00,,---,0.00,VWS V14.01,2013-05-07 17:30:00,
2013-05-07 12:35:00,75.3,45.0,30.01,NW,311,8.0,8.0,34,0.00,,---,0.00,VWS V14.01,2013-05-07 17:35:00,
2013-05-07 12:40:00,75.2,42.5,30.01,NW,319,4.0,8.0,31,0.00,,---,0.00,VWS V14.01,2013-05-07 17:40:00,
2013-05-07 12:45:00,75.2,39.9,30.01,NW,325,4.0,8.0,28,0.00,,---,0.00,VWS V14.01,2013-05-07 17:45:00,
2013-05-07 12:50:00,75.1,43.3,30.01,ENE,72,0.0,8.0,32,0.00,,---,0.00,VWS V14.01,2013-05-07 17:50:00,
2013-05-07 12:55:00,75.4,41.0,30.00,ENE,72,0.0,8.0,29,0.00,,---,0.00,VWS V14.01,2013-05-07 17:55:00,
2013-05-07 13:00:00,75.9,42.3,30.00,NNW,328,0.0,6.0,30,0.00,,---,0.00,VWS V14.01,2013-05-07 18:00:00,
2013-05-07 13:05:00,76.1,43.3,30.00,NNE,33,1.0,9.0,31,0.00,,---,0.00,VWS V14.01,2013-05-07 18:05:00,
2013-05-07 13:10:00,76.2,40.8,30.00,ESE,118,0.0,9.0,28,0.00,,---,0.00,VWS V14.01,2013-05-07 18:10:00,
2013-05-07 13:15:00,76.5,43.7,30.00,NW,306,0.0,9.0,31,0.00,,---,0.00,VWS V14.01,2013-05-07 18:15:00,
2013-05-07 13:20:00,77.0,41.4,30.00,NE,41,4.0,9.0,28,0.00,,---,0.00,VWS V14.01,2013-05-07 18:20:00,
2013-05-07 13:25:00,76.9,41.3,30.00,NNE,21,4.0,9.0,28,0.00,,---,0.00,VWS V14.01,2013-05-07 18:25:00,
2013-05-07 13:30:00,76.8,42.2,30.00,North,5,1.0,1.0,29,0.00,,---,0.00,VWS V14.01,2013-05-07 18:30:00,
2013-05-07 13:35:00,76.8,40.3,30.00,NE,34,2.0,7.0,27,0.00,,---,0.00,VWS V14.01,2013-05-07 18:35:00,
2013-05-07 13:40:00,76.8,42.2,30.00,North,355,4.0,9.0,29,0.00,,---,0.00,VWS V14.01,2013-05-07 18:40:00,
2013-05-07 13:45:00,76.9,47.2,30.00,North,360,1.0,9.0,35,0.00,,---,0.00,VWS V14.01,2013-05-07 18:45:00,
2013-05-07 13:50:00,77.1,44.2,29.99,East,88,3.0,9.0,31,0.00,,---,0.00,VWS V14.01,2013-05-07 18:50:00,
2013-05-07 13:55:00,77.7,42.0,29.99,SE,140,0.0,9.0,28,0.00,,---,0.00,VWS V14.01,2013-05-07 18:55:00,
2013-05-07 14:00:00,77.6,42.9,29.99,NW,309,0.0,3.0,29,0.00,,---,0.00,VWS V14.01,2013-05-07 19:00:00,
2013-05-07 14:05:00,77.5,40.9,29.99,WNW,298,0.0,3.0,27,0.00,,---,0.00,VWS V14.01,2013-05-07 19:05:00,
2013-05-07 14:10:00,77.6,42.0,29.99,SE,137,0.0,3.0,28,0.00,,---,0.00,VWS V14.01,2013-05-07 19:10:00,
2013-05-07 14:15:00,77.6,39.0,29.98,NE,51,0.0,6.0,25,0.00,,---,0.00,VWS V14.01,2013-05-07 19:15:00,
2013-05-07 14:20:00,77.3,39.8,29.98,SE,146,7.0,7.0,26,0.00,,---,0.00,VWS V14.01,2013-05-07 19:20:00,
2013-05-07 14:25:00,77.5,49.2,29.98,SE,146,0.0,7.0,37,0.00,,---,0.00,VWS V14.01,2013-05-07 19:25:00,
2013-05-07 14:30:00,78.2,47.6,29.98,SE,145,0.0,0.0,34,0.00,,---,0.00,VWS V14.01,2013-05-07 19:30:00,
2013-05-07 14:35:00,78.5,39.8,29.98,North,11,0.0,6.0,25,0.00,,---,0.00,VWS V14.01,2013-05-07 19:35:00,
2013-05-07 14:40:00,78.4,41.7,29.98,East,97,0.0,6.0,27,0.00,,---,0.00,VWS V14.01,2013-05-07 19:40:00,
2013-05-07 14:45:00,78.2,38.5,29.98,ENE,71,1.0,6.0,24,0.00,,---,0.00,VWS V14.01,2013-05-07 19:45:00,
2013-05-07 14:50:00,78.4,40.7,29.98,ESE,117,5.0,6.0,26,0.00,,---,0.00,VWS V14.01,2013-05-07 19:50:00,
2013-05-07 14:55:00,78.7,45.6,29.98,ENE,78,4.0,7.0,31,0.00,,---,0.00,VWS V14.01,2013-05-07 19:55:00,
2013-05-07 15:00:00,78.6,39.9,29.98,NNE,17,2.0,7.0,25,0.00,,---,0.00,VWS V14.01,2013-05-07 20:00:00,
2013-05-07 15:05:00,78.2,39.5,29.97,West,271,0.0,7.0,25,0.00,,---,0.00,VWS V14.01,2013-05-07 20:05:00,
2013-05-07 15:10:00,78.1,40.5,29.97,NW,305,2.0,7.0,26,0.00,,---,0.00,VWS V14.01,2013-05-07 20:10:00,
2013-05-07 15:15:00,78.1,39.5,29.97,West,259,4.0,7.0,25,0.00,,---,0.00,VWS V14.01,2013-05-07 20:15:00,
2013-05-07 15:20:00,78.1,40.5,29.97,NW,316,3.0,7.0,26,0.00,,---,0.00,VWS V14.01,2013-05-07 20:20:00,
2013-05-07 15:25:00,78.2,41.5,29.97,NNE,15,4.0,7.0,27,0.00,,---,0.00,VWS V14.01,2013-05-07 20:25:00,
2013-05-07 15:30:00,78.3,41.6,29.97,NW,323,1.0,2.0,27,0.00,,---,0.00,VWS V14.01,2013-05-07 20:30:00,
2013-05-07 15:35:00,78.4,41.7,29.97,NW,324,0.0,7.0,27,0.00,,---,0.00,VWS V14.01,2013-05-07 20:35:00,
2013-05-07 15:40:00,78.4,40.7,29.97,NW,318,0.0,8.0,26,0.00,,---,0.00,VWS V14.01,2013-05-07 20:40:00,
2013-05-07 15:45:00,78.7,46.4,29.97,NNW,336,0.0,8.0,32,0.00,,---,0.00,VWS V14.01,2013-05-07 20:45:00,
2013-05-07 15:50:00,79.0,42.2,29.97,ENE,68,4.0,8.0,27,0.00,,---,0.00,VWS V14.01,2013-05-07 20:50:00,
2013-05-07 15:55:00,78.6,39.9,29.97,NNE,26,1.0,8.0,25,0.00,,---,0.00,VWS V14.01,2013-05-07 20:55:00,
2013-05-07 16:00:00,78.7,38.9,29.96,SSW,213,1.0,4.0,24,0.00,,---,0.00,VWS V14.01,2013-05-07 21:00:00,
2013-05-07 16:05:00,79.0,40.2,29.96,SW,232,0.0,4.0,25,0.00,,---,0.00,VWS V14.01,2013-05-07 21:05:00,
2013-05-07 16:10:00,79.2,43.3,29.96,NE,45,0.0,5.0,28,0.00,,---,0.00,VWS V14.01,2013-05-07 21:10:00,
2013-05-07 16:15:00,78.7,41.9,29.96,ENE,78,1.0,6.0,27,0.00,,---,0.00,VWS V14.01,2013-05-07 21:15:00,
2013-05-07 16:20:00,78.7,42.9,29.96,NE,34,0.0,6.0,28,0.00,,---,0.00,VWS V14.01,2013-05-07 21:20:00,
2013-05-07 16:25:00,78.8,43.0,29.96,ENE,63,0.0,6.0,28,0.00,,---,0.00,VWS V14.01,2013-05-07 21:25:00,
2013-05-07 16:30:00,79.1,43.2,29.96,North,5,2.0,6.0,28,0.00,,---,0.00,VWS V14.01,2013-05-07 21:30:00,
2013-05-07 16:35:00,78.7,41.0,29.96,East,91,1.0,6.0,26,0.00,,---,0.00,VWS V14.01,2013-05-07 21:35:00,
2013-05-07 16:40:00,78.8,44.8,29.96,ENE,78,0.0,6.0,30,0.00,,---,0.00,VWS V14.01,2013-05-07 21:40:00,
2013-05-07 16:45:00,78.6,40.9,29.96,ENE,77,0.0,6.0,26,0.00,,---,0.00,VWS V14.01,2013-05-07 21:45:00,
2013-05-07 16:50:00,78.7,41.0,29.96,NNW,342,2.0,6.0,26,0.00,,---,0.00,VWS V14.01,2013-05-07 21:50:00,
2013-05-07 16:55:00,78.7,38.9,29.96,North,350,4.0,6.0,24,0.00,,---,0.00,VWS V14.01,2013-05-07 21:55:00,
2013-05-07 17:00:00,79.1,41.3,29.96,NW,321,0.0,2.0,26,0.00,,---,0.00,VWS V14.01,2013-05-07 22:00:00,
2013-05-07 17:05:00,79.5,41.7,29.96,NW,320,1.0,4.0,26,0.00,,---,0.00,VWS V14.01,2013-05-07 22:05:00,
2013-05-07 17:10:00,79.6,42.7,29.96,WNW,295,3.0,6.0,27,0.00,,---,0.00,VWS V14.01,2013-05-07 22:10:00,
2013-05-07 17:15:00,79.5,40.6,29.96,North,355,1.0,6.0,25,0.00,,---,0.00,VWS V14.01,2013-05-07 22:15:00,
2013-05-07 17:20:00,79.3,44.3,29.96,NW,322,0.0,6.0,29,0.00,,---,0.00,VWS V14.01,2013-05-07 22:20:00,
2013-05-07 17:25:00,79.5,40.6,29.96,SSW,200,1.0,6.0,25,0.00,,---,0.00,VWS V14.01,2013-05-07 22:25:00,
2013-05-07 17:30:00,79.8,47.3,29.96,SW,229,0.0,2.0,32,0.00,,---,0.00,VWS V14.01,2013-05-07 22:30:00,
2013-05-07 17:35:00,79.8,42.9,29.96,SW,229,0.0,2.0,27,0.00,,---,0.00,VWS V14.01,2013-05-07 22:35:00,
2013-05-07 17:40:00,79.9,41.0,29.96,West,261,0.0,3.0,25,0.00,,---,0.00,VWS V14.01,2013-05-07 22:40:00,
2013-05-07 17:44:00,79.6,41.7,29.96,SW,217,1.0,3.0,26,0.00,,---,0.00,VWS V14.01,2013-05-07 22:44:00,
2013-05-07 17:49:00,79.1,41.3,29.96,NW,306,0.0,6.0,26,0.00,,---,0.00,VWS V14.01,2013-05-07 22:49:00,
2013-05-07 17:54:00,78.7,44.7,29.96,NW,306,0.0,6.0,30,0.00,,---,0.00,VWS V14.01,2013-05-07 22:54:00,
2013-05-07 17:59:00,78.2,42.5,29.96,WSW,257,0.0,0.0,28,0.00,,---,0.00,VWS V14.01,2013-05-07 22:59:00,
2013-05-07 18:00:00,78.2,43.4,29.96,WSW,257,0.0,6.0,29,0.00,,---,0.00,VWS V14.01,2013-05-07 23:00:00,
2013-05-07 18:04:00,77.8,48.7,29.96,South,186,0.0,2.0,36,0.00,,---,0.00,VWS V14.01,2013-05-07 23:04:00,
2013-05-07 18:09:00,77.5,40.9,29.95,NW,309,3.0,5.0,27,0.00,,---,0.00,VWS V14.01,2013-05-07 23:09:00,
2013-05-07 18:14:00,77.5,40.9,29.95,WNW,295,2.0,6.0,27,0.00,,---,0.00,VWS V14.01,2013-05-07 23:14:00,
2013-05-07 18:19:00,77.5,41.9,29.95,NW,324,2.0,6.0,28,0.00,,---,0.00,VWS V14.01,2013-05-07 23:19:00,
2013-05-07 18:24:00,77.5,47.7,29.95,NW,323,2.0,6.0,35,0.00,,---,0.00,VWS V14.01,2013-05-07 23:24:00,
2013-05-07 18:29:00,77.1,43.3,29.95,West,272,0.0,1.0,30,0.00,,---,0.00,VWS V14.01,2013-05-07 23:29:00,
2013-05-07 18:30:00,77.1,42.4,29.95,West,272,0.0,6.0,29,0.00,,---,0.00,VWS V14.01,2013-05-07 23:30:00,
2013-05-07 18:34:00,76.8,47.8,29.95,West,272,0.0,1.0,36,0.00,,---,0.00,VWS V14.01,2013-05-07 23:34:00,
2013-05-07 18:39:00,76.4,45.2,29.95,West,272,0.0,1.0,33,0.00,,---,0.00,VWS V14.01,2013-05-07 23:39:00,
2013-05-07 18:44:00,76.1,41.6,29.95,WSW,258,0.0,4.0,29,0.00,,---,0.00,VWS V14.01,2013-05-07 23:44:00,
2013-05-07 18:49:00,75.8,47.0,29.95,WSW,258,0.0,4.0,36,0.00,,---,0.00,VWS V14.01,2013-05-07 23:49:00,
2013-05-07 18:54:00,75.4,43.5,29.95,WSW,258,0.0,4.0,32,0.00,,---,0.00,VWS V14.01,2013-05-07 23:54:00,
2013-05-07 18:59:00,75.0,44.0,29.95,WSW,258,0.0,0.0,33,0.00,,---,0.00,VWS V14.01,2013-05-07 23:59:00,
2013-05-07 19:00:00,75.0,44.8,29.95,WSW,258,0.0,4.0,34,0.00,,---,0.00,VWS V14.01,2013-05-08 00:00:00,
2013-05-07 19:04:00,74.5,44.3,29.95,WSW,258,0.0,0.0,34,0.00,,---,0.00,VWS V14.01,2013-05-08 00:04:00,
2013-05-07 19:09:00,74.0,43.1,29.95,WSW,258,0.0,1.0,33,0.00,,---,0.00,VWS V14.01,2013-05-08 00:09:00,
2013-05-07 19:14:00,73.6,42.8,29.95,WSW,258,0.0,1.0,33,0.00,,---,0.00,VWS V14.01,2013-05-08 00:14:00,
2013-05-07 19:19:00,73.3,44.0,29.95,WSW,258,0.0,1.0,35,0.00,,---,0.00,VWS V14.01,2013-05-08 00:19:00,
2013-05-07 19:24:00,72.9,43.7,29.95,WSW,258,0.0,1.0,35,0.00,,---,0.00,VWS V14.01,2013-05-08 00:24:00,
2013-05-07 19:29:00,72.5,44.1,29.95,WSW,258,0.0,0.0,36,0.00,,---,0.00,VWS V14.01,2013-05-08 00:29:00,
2013-05-07 19:30:00,72.5,44.1,29.95,WSW,258,0.0,1.0,36,0.00,,---,0.00,VWS V14.01,2013-05-08 00:30:00,
2013-05-07 19:34:00,72.0,44.3,29.95,WSW,258,0.0,0.0,37,0.00,,---,0.00,VWS V14.01,2013-05-08 00:34:00,
2013-05-07 19:39:00,71.6,44.7,29.95,WSW,258,0.0,0.0,38,0.00,,---,0.00,VWS V14.01,2013-05-08 00:39:00,
2013-05-07 19:44:00,71.0,49.2,29.96,WSW,258,0.0,0.0,46,0.00,,---,0.00,VWS V14.01,2013-05-08 00:44:00,
2013-05-07 19:49:00,70.3,48.6,29.96,WSW,258,0.0,0.0,46,0.00,,---,0.00,VWS V14.01,2013-05-08 00:49:00,
2013-05-07 19:54:00,69.4,50.5,29.96,WSW,258,0.0,0.0,51,0.00,,---,0.00,VWS V14.01,2013-05-08 00:54:00,
2013-05-07 19:59:00,68.6,53.7,29.96,WSW,258,0.0,0.0,59,0.00,,---,0.00,VWS V14.01,2013-05-08 00:59:00,
2013-05-07 20:00:00,68.7,53.8,29.96,WSW,258,0.0,0.0,59,0.00,,---,0.00,VWS V14.01,2013-05-08 01:00:00,
2013-05-07 20:04:00,67.6,52.3,29.96,WSW,258,0.0,0.0,58,0.00,,---,0.00,VWS V14.01,2013-05-08 01:04:00,
2013-05-07 20:09:00,66.8,51.6,29.96,WSW,258,0.0,0.0,58,0.00,,---,0.00,VWS V14.01,2013-05-08 01:09:00,
2013-05-07 20:14:00,66.0,52.6,29.96,WSW,258,0.0,0.0,62,0.00,,---,0.00,VWS V14.01,2013-05-08 01:14:00,
2013-05-07 20:19:00,65.3,51.5,29.96,WSW,258,0.0,0.0,61,0.00,,---,0.00,VWS V14.01,2013-05-08 01:19:00,
2013-05-07 20:24:00,64.7,51.8,29.96,WSW,258,0.0,0.0,63,0.00,,---,0.00,VWS V14.01,2013-05-08 01:24:00,
2013-05-07 20:29:00,64.3,53.1,29.96,WSW,258,0.0,0.0,67,0.00,,---,0.00,VWS V14.01,2013-05-08 01:29:00,
2013-05-07 20:30:00,64.4,52.0,29.96,WSW,258,0.0,0.0,64,0.00,,---,0.00,VWS V14.01,2013-05-08 01:30:00,
2013-05-07 20:34:00,64.0,54.0,29.96,WSW,258,0.0,0.0,70,0.00,,---,0.00,VWS V14.01,2013-05-08 01:34:00,
2013-05-07 20:39:00,63.3,53.0,29.96,WSW,258,0.0,0.0,69,0.00,,---,0.00,VWS V14.01,2013-05-08 01:39:00,
2013-05-07 20:44:00,62.8,54.0,29.96,WSW,258,0.0,0.0,73,0.00,,---,0.00,VWS V14.01,2013-05-08 01:44:00,
2013-05-07 20:49:00,62.4,53.6,29.96,WSW,258,0.0,0.0,73,0.00,,---,0.00,VWS V14.01,2013-05-08 01:49:00,
2013-05-07 20:54:00,62.0,54.0,29.97,WSW,258,0.0,0.0,75,0.00,,---,0.00,VWS V14.01,2013-05-08 01:54:00,
2013-05-07 20:59:00,61.6,53.6,29.97,WSW,258,0.0,0.0,75,0.00,,---,0.00,VWS V14.01,2013-05-08 01:59:00,
2013-05-07 21:00:00,61.7,53.7,29.97,WSW,258,0.0,0.0,75,0.00,,---,0.00,VWS V14.01,2013-05-08 02:00:00,
2013-05-07 21:04:00,61.3,53.7,29.97,WSW,258,0.0,0.0,76,0.00,,---,0.00,VWS V14.01,2013-05-08 02:04:00,
2013-05-07 21:09:00,60.9,53.7,29.97,WSW,258,0.0,0.0,77,0.00,,---,0.00,VWS V14.01,2013-05-08 02:09:00,
2013-05-07 21:14:00,60.7,54.2,29.97,WSW,258,0.0,0.0,79,0.00,,---,0.00,VWS V14.01,2013-05-08 02:14:00,
2013-05-07 21:19:00,60.4,54.2,29.97,WSW,258,0.0,0.0,80,0.00,,---,0.00,VWS V14.01,2013-05-08 02:19:00,
2013-05-07 21:24:00,60.2,54.0,29.97,WSW,258,0.0,0.0,80,0.00,,---,0.00,VWS V14.01,2013-05-08 02:24:00,
2013-05-07 21:29:00,60.0,53.8,29.97,WSW,258,0.0,0.0,80,0.00,,---,0.00,VWS V14.01,2013-05-08 02:29:00,
2013-05-07 21:30:00,60.0,53.8,29.97,WSW,258,0.0,0.0,80,0.00,,---,0.00,VWS V14.01,2013-05-08 02:30:00,
2013-05-07 21:34:00,59.6,53.4,29.97,WSW,258,0.0,0.0,80,0.00,,---,0.00,VWS V14.01,2013-05-08 02:34:00,
2013-05-07 21:39:00,59.2,53.0,29.98,WSW,258,0.0,0.0,80,0.00,,---,0.00,VWS V14.01,2013-05-08 02:39:00,
2013-05-07 21:44:00,59.0,53.2,29.98,WSW,258,0.0,0.0,81,0.00,,---,0.00,VWS V14.01,2013-05-08 02:44:00,
2013-05-07 21:49:00,59.0,53.2,29.98,WSW,258,0.0,0.0,81,0.00,,---,0.00,VWS V14.01,2013-05-08 02:49:00,
2013-05-07 21:54:00,58.7,53.2,29.98,WSW,258,0.0,0.0,82,0.00,,---,0.00,VWS V14.01,2013-05-08 02:54:00,
2013-05-07 21:59:00,58.4,52.9,29.97,WSW,258,0.0,0.0,82,0.00,,---,0.00,VWS V14.01,2013-05-08 02:59:00,
2013-05-07 22:00:00,58.5,53.0,29.98,WSW,258,0.0,0.0,82,0.00,,---,0.00,VWS V14.01,2013-05-08 03:00:00,
2013-05-07 22:04:00,58.2,53.1,29.98,WSW,258,0.0,0.0,83,0.00,,---,0.00,VWS V14.01,2013-05-08 03:04:00,
2013-05-07 22:09:00,58.0,52.9,29.98,WSW,258,0.0,0.0,83,0.00,,---,0.00,VWS V14.01,2013-05-08 03:09:00,
2013-05-07 22:14:00,58.0,53.2,29.98,WSW,258,0.0,0.0,84,0.00,,---,0.00,VWS V14.01,2013-05-08 03:14:00,
2013-05-07 22:19:00,57.8,53.0,29.98,WSW,258,0.0,0.0,84,0.00,,---,0.00,VWS V14.01,2013-05-08 03:19:00,
2013-05-07 22:24:00,57.8,53.3,29.98,WSW,258,0.0,0.0,85,0.00,,---,0.00,VWS V14.01,2013-05-08 03:24:00,
2013-05-07 22:29:00,57.7,53.2,29.97,WSW,258,0.0,0.0,85,0.00,,---,0.00,VWS V14.01,2013-05-08 03:29:00,
2013-05-07 22:30:00,57.7,53.2,29.97,WSW,258,0.0,0.0,85,0.00,,---,0.00,VWS V14.01,2013-05-08 03:30:00,
2013-05-07 22:34:00,57.7,53.2,29.98,WSW,258,0.0,0.0,85,0.00,,---,0.00,VWS V14.01,2013-05-08 03:34:00,
2013-05-07 22:39:00,57.6,53.1,29.98,WSW,258,0.0,0.0,85,0.00,,---,0.00,VWS V14.01,2013-05-08 03:39:00,
2013-05-07 22:44:00,57.3,52.5,29.97,WSW,258,0.0,0.0,84,0.00,,---,0.00,VWS V14.01,2013-05-08 03:44:00,
2013-05-07 22:49:00,57.2,52.4,29.97,WSW,258,0.0,0.0,84,0.00,,---,0.00,VWS V14.01,2013-05-08 03:49:00,
2013-05-07 22:54:00,57.0,52.5,29.97,WSW,258,0.0,0.0,85,0.00,,---,0.00,VWS V14.01,2013-05-08 03:54:00,
2013-05-07 22:59:00,56.8,52.3,29.97,WSW,258,0.0,0.0,85,0.00,,---,0.00,VWS V14.01,2013-05-08 03:59:00,
2013-05-07 23:00:00,56.8,52.3,29.97,WSW,258,0.0,0.0,85,0.00,,---,0.00,VWS V14.01,2013-05-08 04:00:00,
2013-05-07 23:01:00,56.8,52.3,29.97,WSW,258,0.0,0.0,85,0.00,,---,0.00,VWS V14.01,2013-05-08 04:01:00,
2013-05-07 23:06:00,56.6,52.5,29.97,WSW,258,0.0,0.0,86,0.00,,---,0.00,VWS V14.01,2013-05-08 04:06:00,
2013-05-07 23:11:00,56.4,52.0,29.97,WSW,258,0.0,0.0,85,0.00,,---,0.00,VWS V14.01,2013-05-08 04:11:00,
2013-05-07 23:16:00,56.1,51.3,29.97,WSW,258,0.0,0.0,84,0.00,,---,0.00,VWS V14.01,2013-05-08 04:16:00,
2013-05-07 23:21:00,55.9,51.5,29.97,WSW,258,0.0,0.0,85,0.00,,---,0.00,VWS V14.01,2013-05-08 04:21:00,
2013-05-07 23:26:00,55.8,51.7,29.97,WSW,258,0.0,0.0,86,0.00,,---,0.00,VWS V14.01,2013-05-08 04:26:00,
2013-05-07 23:30:00,55.7,51.6,29.97,WSW,258,0.0,0.0,86,0.00,,---,0.00,VWS V14.01,2013-05-08 04:30:00,
2013-05-07 23:31:00,55.6,51.5,29.97,WSW,258,0.0,0.0,86,0.00,,---,0.00,VWS V14.01,2013-05-08 04:31:00,
2013-05-07 23:36:00,55.5,51.4,29.97,WSW,258,0.0,0.0,86,0.00,,---,0.00,VWS V14.01,2013-05-08 04:36:00,
2013-05-07 23:41:00,55.4,51.3,29.97,WSW,258,0.0,1.0,86,0.00,,---,0.00,VWS V14.01,2013-05-08 04:41:00,
2013-05-07 23:46:00,55.2,51.1,29.97,WSW,258,0.0,1.0,86,0.00,,---,0.00,VWS V14.01,2013-05-08 04:46:00,
2013-05-07 23:51:00,55.0,50.6,29.97,WSW,258,0.0,1.0,85,0.00,,---,0.00,VWS V14.01,2013-05-08 04:51:00,
2013-05-07 23:56:00,54.7,50.3,29.97,WSW,258,0.0,1.0,85,0.00,,---,0.00,VWS V14.01,2013-05-08 04:56:00,